createdAt,value
2023-02-23T00:00:21.232Z,83.77
2023-02-23T00:05:52.904Z,84.08
2023-02-23T00:11:18.385Z,84.37
2023-02-23T00:16:46.019Z,84.38
2023-02-23T00:22:10.271Z,84.91
2023-02-23T00:27:44.488Z,85.17
2023-02-23T00:33:09.717Z,85.15
2023-02-23T00:38:36.441Z,85.49
2023-02-23T00:44:01.838Z,85.37
2023-02-23T00:49:27.258Z,85.18
2023-02-23T00:54:51.690Z,85.45
2023-02-23T01:00:21.136Z,85.62
2023-02-23T01:05:46.531Z,85.70
2023-02-23T01:11:13.614Z,85.81
2023-02-23T01:16:39.602Z,86.11
2023-02-23T01:22:05.478Z,85.87
2023-02-23T01:27:29.777Z,86.19
2023-02-23T01:32:53.858Z,85.72
2023-02-23T01:38:19.062Z,85.52
2023-02-23T01:44:14.096Z,85.74
2023-02-23T01:49:38.601Z,85.83
2023-02-23T01:55:03.425Z,85.58
2023-02-23T02:00:27.506Z,85.56
2023-02-23T02:05:54.312Z,85.41
2023-02-23T02:11:26.409Z,85.37
2023-02-23T02:16:53.094Z,85.23
2023-02-23T02:22:55.408Z,85.35
2023-02-23T02:28:25.730Z,85.58
2023-02-23T02:34:09.836Z,85.30
2023-02-23T02:39:51.864Z,85.58
2023-02-23T02:45:27.844Z,85.37
2023-02-23T02:51:01.185Z,84.93
2023-02-23T02:56:27.728Z,85.29
2023-02-23T03:02:11.599Z,85.23
2023-02-23T03:08:01.760Z,85.08
2023-02-23T03:14:14.604Z,84.94
2023-02-23T03:20:23.824Z,85.13
2023-02-23T03:26:06.386Z,84.80
2023-02-23T03:32:14.664Z,84.94
2023-02-23T03:38:04.734Z,84.75
2023-02-23T03:43:54.396Z,84.88
2023-02-23T03:49:40.213Z,84.75
2023-02-23T03:55:33.987Z,84.72
2023-02-23T04:01:20.385Z,84.61
2023-02-23T04:07:05.909Z,85.09
2023-02-23T04:13:07.791Z,84.91
2023-02-23T04:18:35.295Z,85.02
2023-02-23T04:24:00.058Z,84.97
2023-02-23T04:29:24.650Z,84.89
2023-02-23T04:34:48.720Z,84.64
2023-02-23T04:40:13.341Z,84.61
2023-02-23T04:45:38.541Z,84.98
2023-02-23T04:51:02.611Z,84.68
2023-02-23T04:56:26.878Z,84.97
2023-02-23T05:01:51.093Z,85.15
2023-02-23T05:07:15.068Z,85.40
2023-02-23T05:12:40.049Z,85.55
2023-02-23T05:18:04.901Z,85.49
2023-02-23T05:23:29.010Z,85.28
2023-02-23T05:28:53.229Z,85.57
2023-02-23T05:34:17.368Z,85.46
2023-02-23T05:39:41.590Z,85.29
2023-02-23T05:45:08.021Z,85.06
2023-02-23T05:50:34.167Z,85.47
2023-02-23T05:55:59.654Z,85.42
2023-02-23T06:01:25.785Z,85.31
2023-02-23T06:06:49.984Z,84.96
2023-02-23T06:12:14.611Z,85.05
2023-02-23T06:17:38.539Z,85.03
2023-02-23T06:23:05.008Z,85.52
2023-02-23T06:28:29.817Z,85.34
2023-02-23T06:33:53.844Z,85.61
2023-02-23T06:39:18.399Z,85.27
2023-02-23T06:44:42.300Z,85.37
2023-02-23T06:50:08.399Z,85.39
2023-02-23T06:55:33.152Z,85.59
2023-02-23T07:00:59.088Z,85.52
2023-02-23T07:06:23.893Z,85.05
2023-02-23T07:11:53.616Z,84.69
2023-02-23T07:17:20.065Z,84.90
2023-02-23T07:22:46.925Z,84.99
2023-02-23T07:28:14.495Z,84.97
2023-02-23T07:33:38.698Z,84.69
2023-02-23T07:39:05.283Z,84.58
2023-02-23T07:44:30.693Z,84.50
2023-02-23T07:49:55.193Z,84.36
2023-02-23T07:55:20.081Z,84.52
2023-02-23T08:00:45.140Z,84.35
2023-02-23T08:06:09.414Z,84.24
2023-02-23T08:11:33.659Z,84.40
2023-02-23T08:16:57.966Z,84.00
2023-02-23T08:22:22.644Z,83.88
2023-02-23T08:27:47.160Z,83.72
2023-02-23T08:33:11.948Z,83.70
2023-02-23T08:38:39.774Z,83.60
2023-02-23T08:44:04.309Z,83.27
2023-02-23T08:49:28.634Z,83.35
2023-02-23T08:54:52.306Z,83.61
2023-02-23T09:00:17.400Z,83.55
2023-02-23T09:05:42.116Z,83.76
2023-02-23T09:11:06.834Z,83.69
2023-02-23T09:16:32.652Z,83.70
2023-02-23T09:21:56.855Z,83.97
2023-02-23T09:27:20.848Z,83.99
2023-02-23T09:32:46.066Z,83.62
2023-02-23T09:38:16.059Z,83.05
2023-02-23T09:43:55.153Z,82.59
2023-02-23T09:49:23.463Z,82.26
2023-02-23T09:54:47.485Z,82.00
2023-02-23T10:00:20.310Z,81.76
2023-02-23T10:05:49.058Z,81.24
2023-02-23T10:11:39.159Z,80.62
2023-02-23T10:17:25.012Z,79.77
2023-02-23T10:22:50.838Z,79.52
2023-02-23T10:28:20.620Z,79.08
2023-02-23T10:33:45.338Z,78.30
2023-02-23T10:39:13.042Z,77.83
2023-02-23T10:44:38.106Z,77.69
2023-02-23T10:50:04.475Z,77.64
2023-02-23T10:55:31.871Z,77.36
2023-02-23T11:00:59.901Z,77.43
2023-02-23T11:06:33.792Z,77.19
2023-02-23T11:12:01.889Z,77.15
2023-02-23T11:17:36.732Z,76.12
2023-02-23T11:23:06.555Z,76.62
2023-02-23T11:28:42.238Z,76.07
2023-02-23T11:34:07.120Z,75.99
2023-02-23T11:39:31.381Z,75.61
2023-02-23T11:45:26.029Z,75.98
2023-02-23T11:50:53.541Z,76.10
2023-02-23T11:56:24.346Z,75.45
2023-02-23T12:01:52.164Z,75.35
2023-02-23T12:07:42.147Z,74.89
2023-02-23T12:13:34.755Z,74.40
2023-02-23T12:19:23.873Z,73.29
2023-02-23T12:25:05.431Z,74.28
2023-02-23T12:30:58.361Z,73.10
2023-02-23T12:36:38.825Z,73.22
2023-02-23T12:42:20.792Z,73.55
2023-02-23T12:47:59.723Z,73.18
2023-02-23T12:53:28.165Z,73.00
2023-02-23T12:59:14.806Z,72.48
2023-02-23T13:04:58.758Z,72.20
2023-02-23T13:10:59.933Z,72.69
2023-02-23T13:17:26.923Z,70.95
2023-02-23T13:23:48.071Z,71.30
2023-02-23T13:29:50.326Z,70.62
2023-02-23T13:35:49.325Z,68.73
2023-02-23T13:41:58.283Z,66.88
2023-02-23T13:47:53.585Z,64.88
2023-02-23T13:53:47.257Z,63.61
2023-02-23T13:59:19.773Z,63.91
2023-02-23T14:04:45.080Z,64.41
2023-02-23T14:10:27.449Z,64.01
2023-02-23T14:16:14.970Z,64.08
2023-02-23T14:21:51.164Z,63.47
2023-02-23T14:27:39.758Z,63.56
2023-02-23T14:33:55.582Z,64.28
2023-02-23T14:39:27.774Z,64.84
2023-02-23T14:44:57.047Z,64.38
2023-02-23T14:50:49.111Z,64.63
2023-02-23T14:56:26.196Z,64.41
2023-02-23T15:02:01.382Z,64.96
2023-02-23T15:07:41.506Z,65.06
2023-02-23T15:13:12.296Z,65.53
2023-02-23T15:18:42.207Z,65.85
2023-02-23T15:24:17.076Z,66.01
2023-02-23T15:29:41.800Z,66.49
2023-02-23T15:35:12.285Z,66.86
2023-02-23T15:40:36.343Z,66.94
2023-02-23T15:46:06.295Z,67.00
2023-02-23T15:51:44.938Z,67.15
2023-02-23T15:57:20.046Z,67.41
2023-02-23T16:02:45.794Z,67.65
2023-02-23T16:08:23.860Z,67.72
2023-02-23T16:13:55.704Z,67.82
2023-02-23T16:19:23.580Z,68.24
2023-02-23T16:25:03.918Z,68.06
2023-02-23T16:30:43.342Z,67.97
2023-02-23T16:36:15.079Z,68.06
2023-02-23T16:41:39.458Z,68.25
2023-02-23T16:47:03.494Z,68.42
2023-02-23T16:52:29.280Z,68.66
2023-02-23T16:57:59.616Z,68.83
2023-02-23T17:03:27.069Z,69.16
2023-02-23T17:08:58.088Z,69.47
2023-02-23T17:14:27.632Z,69.73
2023-02-23T17:19:52.302Z,69.93
2023-02-23T17:25:17.987Z,69.91
2023-02-23T17:30:43.157Z,70.10
2023-02-23T17:36:11.629Z,70.25
2023-02-23T17:41:35.638Z,70.47
2023-02-23T17:46:59.677Z,70.71
2023-02-23T17:52:24.513Z,70.90
2023-02-23T17:57:48.935Z,71.22
2023-02-23T18:03:13.457Z,71.50
2023-02-23T18:08:39.834Z,71.87
2023-02-23T18:14:04.067Z,72.06
2023-02-23T18:19:28.335Z,72.28
2023-02-23T18:24:53.767Z,72.34
2023-02-23T18:30:19.120Z,72.60
2023-02-23T18:35:45.824Z,73.18
2023-02-23T18:41:11.653Z,73.78
2023-02-23T18:46:36.579Z,74.14
2023-02-23T18:52:00.547Z,74.77
2023-02-23T18:57:25.516Z,75.59
2023-02-23T19:02:51.143Z,75.57
2023-02-23T19:08:16.110Z,75.71
2023-02-23T19:13:40.390Z,75.52
2023-02-23T19:19:07.515Z,75.58
2023-02-23T19:24:32.572Z,75.39
2023-02-23T19:29:57.093Z,75.56
2023-02-23T19:35:22.181Z,75.26
2023-02-23T19:40:47.746Z,75.19
2023-02-23T19:46:15.786Z,75.07
2023-02-23T19:51:40.403Z,75.29
2023-02-23T19:57:05.067Z,75.51
2023-02-23T20:02:30.194Z,75.93
2023-02-23T20:07:55.520Z,76.76
2023-02-23T20:13:23.834Z,77.92
2023-02-23T20:18:49.653Z,79.17
2023-02-23T20:24:14.035Z,79.94
2023-02-23T20:29:38.360Z,80.88
2023-02-23T20:35:02.250Z,81.99
2023-02-23T20:40:27.750Z,82.21
2023-02-23T20:45:52.605Z,83.06
2023-02-23T20:51:19.576Z,83.36
2023-02-23T20:56:45.013Z,83.89
2023-02-23T21:02:11.199Z,84.33
2023-02-23T21:07:38.280Z,84.45
2023-02-23T21:13:22.497Z,85.23
2023-02-23T21:19:04.462Z,85.66
2023-02-23T21:24:46.577Z,85.99
2023-02-23T21:30:28.909Z,86.37
2023-02-23T21:36:12.929Z,86.95
2023-02-23T21:41:38.909Z,87.31
2023-02-23T21:47:07.720Z,87.77
2023-02-23T21:52:33.384Z,88.06
2023-02-23T21:57:58.576Z,88.36
2023-02-23T22:03:24.239Z,88.68
2023-02-23T22:08:50.861Z,89.10
2023-02-23T22:14:19.173Z,89.55
2023-02-23T22:19:44.282Z,89.94
2023-02-23T22:25:08.960Z,90.17
2023-02-23T22:30:33.988Z,90.20
2023-02-23T22:36:01.975Z,90.30
2023-02-23T22:41:29.847Z,90.46
2023-02-23T22:46:54.075Z,90.42
2023-02-23T22:52:19.005Z,90.54
2023-02-23T22:57:43.333Z,90.60
2023-02-23T23:03:07.862Z,90.51
2023-02-23T23:08:37.544Z,90.72
2023-02-23T23:14:02.390Z,90.66
2023-02-23T23:19:26.814Z,90.94
2023-02-23T23:24:52.991Z,90.70
2023-02-23T23:30:21.383Z,90.86
2023-02-23T23:35:45.679Z,90.91
2023-02-23T23:41:14.645Z,90.98
2023-02-23T23:46:43.038Z,91.05
2023-02-23T23:52:07.937Z,91.20
2023-02-23T23:57:33.408Z,91.53
